sensor_id;sensor_type;location;lat;lon;timestamp;P1;durP1;ratioP1;P2;durP2;ratioP2
1136;SDS011;557;48.466;7.950;2024-01-15T00:02:20;50.07;;;21.53;;
1136;SDS011;557;48.466;7.950;2024-01-15T00:04:47;48.57;;;21.93;;
1136;SDS011;557;48.466;7.950;2024-01-15T00:07:14;47.67;;;19.33;;
1136;SDS011;557;48.466;7.950;2024-01-15T00:09:41;48.17;;;21.43;;
1136;SDS011;557;48.466;7.950;2024-01-15T00:12:08;52.17;;;20.30;;
1136;SDS011;557;48.466;7.950;2024-01-15T00:14:36;45.00;;;20.27;;
1136;SDS011;557;48.466;7.950;2024-01-15T00:17:03;52.97;;;21.50;;
1136;SDS011;557;48.466;7.950;2024-01-15T00:19:30;45.83;;;20.20;;
1136;SDS011;557;48.466;7.950;2024-01-15T00:21:57;45.50;;;20.50;;
1136;SDS011;557;48.466;7.950;2024-01-15T00:24:25;42.60;;;20.87;;
1136;SDS011;557;48.466;7.950;2024-01-15T00:26:51;40.07;;;19.70;;
1136;SDS011;557;48.466;7.950;2024-01-15T00:29:20;54.27;;;23.20;;
1136;SDS011;557;48.466;7.950;2024-01-15T00:31:48;43.20;;;20.60;;
1136;SDS011;557;48.466;7.950;2024-01-15T00:34:15;49.10;;;21.70;;
1136;SDS011;557;48.466;7.950;2024-01-15T00:36:42;41.53;;;18.50;;
1136;SDS011;557;48.466;7.950;2024-01-15T00:39:09;43.63;;;20.40;;
1136;SDS011;557;48.466;7.950;2024-01-15T00:41:36;45.33;;;20.27;;
1136;SDS011;557;48.466;7.950;2024-01-15T00:44:04;41.93;;;19.27;;
1136;SDS011;557;48.466;7.950;2024-01-15T00:46:32;43.63;;;19.20;;
1136;SDS011;557;48.466;7.950;2024-01-15T00:49:00;47.57;;;20.67;;
1136;SDS011;557;48.466;7.950;2024-01-15T00:51:28;41.20;;;18.87;;
1136;SDS011;557;48.466;7.950;2024-01-15T00:53:55;42.10;;;19.60;;
1136;SDS011;557;48.466;7.950;2024-01-15T00:56:22;47.60;;;19.27;;
1136;SDS011;557;48.466;7.950;2024-01-15T00:58:48;40.90;;;18.57;;
1136;SDS011;557;48.466;7.950;2024-01-15T01:01:15;42.37;;;18.77;;
1136;SDS011;557;48.466;7.950;2024-01-15T01:03:42;43.60;;;18.37;;
1136;SDS011;557;48.466;7.950;2024-01-15T01:06:10;46.83;;;19.10;;
1136;SDS011;557;48.466;7.950;2024-01-15T01:08:38;43.73;;;18.83;;
1136;SDS011;557;48.466;7.950;2024-01-15T01:11:05;44.67;;;21.33;;
1136;SDS011;557;48.466;7.950;2024-01-15T01:13:32;39.43;;;20.70;;
1136;SDS011;557;48.466;7.950;2024-01-15T01:15:59;45.53;;;21.43;;
1136;SDS011;557;48.466;7.950;2024-01-15T01:18:26;44.43;;;21.00;;
1136;SDS011;557;48.466;7.950;2024-01-15T01:20:53;45.27;;;19.93;;
1136;SDS011;557;48.466;7.950;2024-01-15T01:23:22;49.10;;;20.43;;
1136;SDS011;557;48.466;7.950;2024-01-15T01:25:49;52.27;;;21.20;;
1136;SDS011;557;48.466;7.950;2024-01-15T01:28:16;43.27;;;19.40;;
1136;SDS011;557;48.466;7.950;2024-01-15T01:30:43;46.00;;;21.13;;
1136;SDS011;557;48.466;7.950;2024-01-15T01:33:09;46.33;;;19.47;;
1136;SDS011;557;48.466;7.950;2024-01-15T01:35:36;46.93;;;20.60;;
1136;SDS011;557;48.466;7.950;2024-01-15T01:38:03;47.93;;;21.47;;
1136;SDS011;557;48.466;7.950;2024-01-15T01:40:31;53.47;;;21.50;;
1136;SDS011;557;48.466;7.950;2024-01-15T01:42:58;43.50;;;20.07;;
1136;SDS011;557;48.466;7.950;2024-01-15T01:45:25;47.90;;;20.90;;
1136;SDS011;557;48.466;7.950;2024-01-15T01:47:52;44.10;;;19.80;;
1136;SDS011;557;48.466;7.950;2024-01-15T01:50:19;42.23;;;20.17;;
1136;SDS011;557;48.466;7.950;2024-01-15T01:52:46;47.77;;;20.53;;
1136;SDS011;557;48.466;7.950;2024-01-15T01:55:13;47.40;;;20.53;;
1136;SDS011;557;48.466;7.950;2024-01-15T01:57:41;50.80;;;23.20;;
1136;SDS011;557;48.466;7.950;2024-01-15T02:00:10;48.50;;;21.87;;
1136;SDS011;557;48.466;7.950;2024-01-15T02:02:37;38.60;;;19.60;;
1136;SDS011;557;48.466;7.950;2024-01-15T02:05:05;43.90;;;18.97;;
1136;SDS011;557;48.466;7.950;2024-01-15T02:07:34;46.47;;;21.83;;
1136;SDS011;557;48.466;7.950;2024-01-15T02:10:01;45.73;;;20.97;;
1136;SDS011;557;48.466;7.950;2024-01-15T02:12:28;47.40;;;20.67;;
1136;SDS011;557;48.466;7.950;2024-01-15T02:14:57;51.53;;;21.43;;
1136;SDS011;557;48.466;7.950;2024-01-15T02:17:24;47.10;;;20.80;;
1136;SDS011;557;48.466;7.950;2024-01-15T02:19:50;38.90;;;20.43;;
1136;SDS011;557;48.466;7.950;2024-01-15T02:22:17;49.43;;;20.60;;
1136;SDS011;557;48.466;7.950;2024-01-15T02:24:45;41.77;;;18.30;;
1136;SDS011;557;48.466;7.950;2024-01-15T02:27:12;42.07;;;20.73;;
1136;SDS011;557;48.466;7.950;2024-01-15T02:29:39;53.30;;;20.30;;
1136;SDS011;557;48.466;7.950;2024-01-15T02:32:08;43.77;;;19.57;;
1136;SDS011;557;48.466;7.950;2024-01-15T02:34:35;41.37;;;19.97;;
1136;SDS011;557;48.466;7.950;2024-01-15T02:37:02;44.20;;;21.40;;
1136;SDS011;557;48.466;7.950;2024-01-15T02:39:29;45.23;;;20.37;;
1136;SDS011;557;48.466;7.950;2024-01-15T02:41:57;44.93;;;20.50;;
1136;SDS011;557;48.466;7.950;2024-01-15T02:44:25;48.80;;;22.93;;
1136;SDS011;557;48.466;7.950;2024-01-15T02:46:52;43.90;;;20.10;;
1136;SDS011;557;48.466;7.950;2024-01-15T02:49:19;47.87;;;24.10;;
1136;SDS011;557;48.466;7.950;2024-01-15T02:51:45;40.53;;;18.43;;
1136;SDS011;557;48.466;7.950;2024-01-15T02:54:13;35.60;;;18.70;;
1136;SDS011;557;48.466;7.950;2024-01-15T02:56:39;49.00;;;20.73;;
1136;SDS011;557;48.466;7.950;2024-01-15T02:59:08;48.27;;;21.07;;
1136;SDS011;557;48.466;7.950;2024-01-15T03:01:35;44.77;;;20.27;;
1136;SDS011;557;48.466;7.950;2024-01-15T03:04:01;41.97;;;21.00;;
1136;SDS011;557;48.466;7.950;2024-01-15T03:06:29;46.77;;;20.53;;
1136;SDS011;557;48.466;7.950;2024-01-15T03:08:55;45.00;;;19.47;;
1136;SDS011;557;48.466;7.950;2024-01-15T03:11:22;40.83;;;21.47;;
1136;SDS011;557;48.466;7.950;2024-01-15T03:13:49;50.23;;;21.80;;
1136;SDS011;557;48.466;7.950;2024-01-15T03:16:17;45.80;;;21.00;;
1136;SDS011;557;48.466;7.950;2024-01-15T03:18:45;49.20;;;21.10;;
1136;SDS011;557;48.466;7.950;2024-01-15T03:21:12;45.33;;;20.90;;
1136;SDS011;557;48.466;7.950;2024-01-15T03:23:39;45.10;;;20.97;;
1136;SDS011;557;48.466;7.950;2024-01-15T03:26:06;45.93;;;21.33;;
1136;SDS011;557;48.466;7.950;2024-01-15T03:28:33;48.40;;;20.17;;
1136;SDS011;557;48.466;7.950;2024-01-15T03:31:00;46.60;;;19.90;;
1136;SDS011;557;48.466;7.950;2024-01-15T03:33:28;50.60;;;22.60;;
1136;SDS011;557;48.466;7.950;2024-01-15T03:35:55;50.27;;;21.77;;
1136;SDS011;557;48.466;7.950;2024-01-15T03:38:22;45.63;;;20.80;;
1136;SDS011;557;48.466;7.950;2024-01-15T03:40:49;44.83;;;20.60;;
1136;SDS011;557;48.466;7.950;2024-01-15T03:43:16;46.17;;;21.73;;
1136;SDS011;557;48.466;7.950;2024-01-15T03:45:43;41.90;;;21.67;;
1136;SDS011;557;48.466;7.950;2024-01-15T03:48:10;50.73;;;23.37;;
1136;SDS011;557;48.466;7.950;2024-01-15T03:50:39;57.27;;;24.43;;
1136;SDS011;557;48.466;7.950;2024-01-15T03:53:06;52.90;;;23.60;;
1136;SDS011;557;48.466;7.950;2024-01-15T03:55:32;52.67;;;24.40;;
1136;SDS011;557;48.466;7.950;2024-01-15T03:57:59;46.10;;;21.93;;
1136;SDS011;557;48.466;7.950;2024-01-15T04:00:26;46.50;;;21.00;;
1136;SDS011;557;48.466;7.950;2024-01-15T04:02:53;50.40;;;23.47;;
1136;SDS011;557;48.466;7.950;2024-01-15T04:05:20;50.13;;;21.40;;
1136;SDS011;557;48.466;7.950;2024-01-15T04:07:48;48.50;;;21.53;;
1136;SDS011;557;48.466;7.950;2024-01-15T04:10:15;53.20;;;22.20;;
1136;SDS011;557;48.466;7.950;2024-01-15T04:12:42;51.33;;;21.40;;
1136;SDS011;557;48.466;7.950;2024-01-15T04:15:11;47.77;;;21.10;;
1136;SDS011;557;48.466;7.950;2024-01-15T04:17:38;54.10;;;22.10;;
1136;SDS011;557;48.466;7.950;2024-01-15T04:20:05;43.20;;;19.80;;
1136;SDS011;557;48.466;7.950;2024-01-15T04:22:33;48.27;;;21.80;;
1136;SDS011;557;48.466;7.950;2024-01-15T04:25:02;50.40;;;22.37;;
1136;SDS011;557;48.466;7.950;2024-01-15T04:27:30;45.37;;;19.83;;
1136;SDS011;557;48.466;7.950;2024-01-15T04:29:57;44.90;;;21.10;;
1136;SDS011;557;48.466;7.950;2024-01-15T04:32:24;49.33;;;21.40;;
1136;SDS011;557;48.466;7.950;2024-01-15T04:34:50;49.57;;;21.70;;
1136;SDS011;557;48.466;7.950;2024-01-15T04:37:17;43.87;;;20.33;;
1136;SDS011;557;48.466;7.950;2024-01-15T04:39:44;44.37;;;21.40;;
1136;SDS011;557;48.466;7.950;2024-01-15T04:42:12;45.93;;;20.10;;
1136;SDS011;557;48.466;7.950;2024-01-15T04:44:39;43.63;;;19.83;;
1136;SDS011;557;48.466;7.950;2024-01-15T04:47:06;48.50;;;20.20;;
1136;SDS011;557;48.466;7.950;2024-01-15T04:49:33;42.90;;;20.50;;
1136;SDS011;557;48.466;7.950;2024-01-15T04:52:00;40.93;;;19.30;;
1136;SDS011;557;48.466;7.950;2024-01-15T04:54:27;40.40;;;20.60;;
1136;SDS011;557;48.466;7.950;2024-01-15T04:56:54;40.27;;;19.20;;
1136;SDS011;557;48.466;7.950;2024-01-15T04:59:22;38.03;;;19.30;;
1136;SDS011;557;48.466;7.950;2024-01-15T05:01:49;48.13;;;21.40;;
1136;SDS011;557;48.466;7.950;2024-01-15T05:04:16;40.67;;;18.50;;
1136;SDS011;557;48.466;7.950;2024-01-15T05:06:42;43.60;;;21.03;;
1136;SDS011;557;48.466;7.950;2024-01-15T05:09:08;34.23;;;17.27;;
1136;SDS011;557;48.466;7.950;2024-01-15T05:11:35;37.20;;;19.07;;
1136;SDS011;557;48.466;7.950;2024-01-15T05:14:02;37.80;;;16.77;;
1136;SDS011;557;48.466;7.950;2024-01-15T05:16:30;34.27;;;17.93;;
1136;SDS011;557;48.466;7.950;2024-01-15T05:18:57;38.30;;;16.80;;
1136;SDS011;557;48.466;7.950;2024-01-15T05:21:24;29.13;;;16.80;;
1136;SDS011;557;48.466;7.950;2024-01-15T05:23:51;33.53;;;16.43;;
1136;SDS011;557;48.466;7.950;2024-01-15T05:26:17;30.80;;;16.30;;
1136;SDS011;557;48.466;7.950;2024-01-15T05:28:44;35.17;;;17.00;;
1136;SDS011;557;48.466;7.950;2024-01-15T05:31:11;30.03;;;14.30;;
1136;SDS011;557;48.466;7.950;2024-01-15T05:33:39;35.60;;;15.27;;
1136;SDS011;557;48.466;7.950;2024-01-15T05:36:06;33.63;;;16.37;;
1136;SDS011;557;48.466;7.950;2024-01-15T05:38:33;31.10;;;14.83;;
1136;SDS011;557;48.466;7.950;2024-01-15T05:41:00;33.60;;;14.83;;
1136;SDS011;557;48.466;7.950;2024-01-15T05:43:27;32.17;;;14.83;;
1136;SDS011;557;48.466;7.950;2024-01-15T05:45:54;29.23;;;14.03;;
1136;SDS011;557;48.466;7.950;2024-01-15T05:48:21;29.50;;;15.50;;
1136;SDS011;557;48.466;7.950;2024-01-15T05:50:49;29.33;;;13.63;;
1136;SDS011;557;48.466;7.950;2024-01-15T05:53:16;31.30;;;15.03;;
1136;SDS011;557;48.466;7.950;2024-01-15T05:55:43;33.57;;;14.47;;
1136;SDS011;557;48.466;7.950;2024-01-15T05:58:10;34.80;;;16.40;;
1136;SDS011;557;48.466;7.950;2024-01-15T06:00:37;28.33;;;13.60;;
1136;SDS011;557;48.466;7.950;2024-01-15T06:03:04;29.80;;;12.50;;
1136;SDS011;557;48.466;7.950;2024-01-15T06:05:30;22.00;;;11.73;;
1136;SDS011;557;48.466;7.950;2024-01-15T06:07:59;24.63;;;12.90;;
1136;SDS011;557;48.466;7.950;2024-01-15T06:10:26;25.33;;;11.40;;
1136;SDS011;557;48.466;7.950;2024-01-15T06:12:53;26.90;;;12.80;;
1136;SDS011;557;48.466;7.950;2024-01-15T06:15:20;27.53;;;13.80;;
1136;SDS011;557;48.466;7.950;2024-01-15T06:17:46;24.23;;;11.43;;
1136;SDS011;557;48.466;7.950;2024-01-15T06:20:13;26.23;;;12.23;;
1136;SDS011;557;48.466;7.950;2024-01-15T06:22:40;24.53;;;12.13;;
1136;SDS011;557;48.466;7.950;2024-01-15T06:25:09;26.70;;;14.10;;
1136;SDS011;557;48.466;7.950;2024-01-15T06:27:36;28.80;;;13.60;;
1136;SDS011;557;48.466;7.950;2024-01-15T06:30:03;23.73;;;12.80;;
1136;SDS011;557;48.466;7.950;2024-01-15T06:32:30;23.93;;;12.97;;
1136;SDS011;557;48.466;7.950;2024-01-15T06:34:57;25.47;;;12.93;;
1136;SDS011;557;48.466;7.950;2024-01-15T06:37:24;25.50;;;12.07;;
1136;SDS011;557;48.466;7.950;2024-01-15T06:39:51;24.00;;;12.47;;
1136;SDS011;557;48.466;7.950;2024-01-15T06:42:19;26.37;;;13.10;;
1136;SDS011;557;48.466;7.950;2024-01-15T06:44:47;24.30;;;12.43;;
1136;SDS011;557;48.466;7.950;2024-01-15T06:47:14;22.87;;;12.43;;
1136;SDS011;557;48.466;7.950;2024-01-15T06:49:42;26.53;;;11.50;;
1136;SDS011;557;48.466;7.950;2024-01-15T18:56:32;14.17;;;10.63;;
1136;SDS011;557;48.466;7.950;2024-01-15T18:59:01;15.20;;;12.53;;
1136;SDS011;557;48.466;7.950;2024-01-15T19:01:28;16.47;;;12.23;;
1136;SDS011;557;48.466;7.950;2024-01-15T19:03:59;21.30;;;16.90;;
1136;SDS011;557;48.466;7.950;2024-01-15T19:06:27;11.60;;;8.03;;
1136;SDS011;557;48.466;7.950;2024-01-15T19:08:54;11.77;;;8.27;;
1136;SDS011;557;48.466;7.950;2024-01-15T19:11:21;12.70;;;8.70;;
1136;SDS011;557;48.466;7.950;2024-01-15T19:13:49;12.47;;;7.53;;
1136;SDS011;557;48.466;7.950;2024-01-15T19:16:16;15.00;;;10.00;;
1136;SDS011;557;48.466;7.950;2024-01-15T19:18:47;18.60;;;11.43;;
1136;SDS011;557;48.466;7.950;2024-01-15T19:21:15;26.70;;;17.80;;
1136;SDS011;557;48.466;7.950;2024-01-15T19:23:42;19.43;;;10.73;;
1136;SDS011;557;48.466;7.950;2024-01-15T19:26:15;24.40;;;14.70;;
1136;SDS011;557;48.466;7.950;2024-01-15T19:28:42;34.43;;;19.03;;
1136;SDS011;557;48.466;7.950;2024-01-15T19:31:11;26.07;;;13.80;;
1136;SDS011;557;48.466;7.950;2024-01-15T19:33:38;22.73;;;14.80;;
1136;SDS011;557;48.466;7.950;2024-01-15T19:36:05;18.03;;;12.00;;
1136;SDS011;557;48.466;7.950;2024-01-15T19:38:33;16.90;;;11.37;;
1136;SDS011;557;48.466;7.950;2024-01-15T19:41:00;19.43;;;13.23;;
1136;SDS011;557;48.466;7.950;2024-01-15T19:43:28;17.23;;;10.90;;
1136;SDS011;557;48.466;7.950;2024-01-15T19:45:54;13.33;;;8.30;;
1136;SDS011;557;48.466;7.950;2024-01-15T19:48:23;28.47;;;17.30;;
1136;SDS011;557;48.466;7.950;2024-01-15T19:50:50;22.40;;;14.83;;
1136;SDS011;557;48.466;7.950;2024-01-15T19:53:18;13.80;;;9.50;;
1136;SDS011;557;48.466;7.950;2024-01-15T19:55:44;13.10;;;10.13;;
1136;SDS011;557;48.466;7.950;2024-01-15T19:58:11;11.10;;;7.93;;
1136;SDS011;557;48.466;7.950;2024-01-15T20:00:39;11.73;;;7.90;;
1136;SDS011;557;48.466;7.950;2024-01-15T20:03:06;13.20;;;8.30;;
1136;SDS011;557;48.466;7.950;2024-01-15T20:05:34;18.57;;;11.10;;
1136;SDS011;557;48.466;7.950;2024-01-15T20:08:01;14.80;;;10.83;;
1136;SDS011;557;48.466;7.950;2024-01-15T20:10:29;15.00;;;9.73;;
1136;SDS011;557;48.466;7.950;2024-01-15T20:12:56;15.00;;;9.43;;
1136;SDS011;557;48.466;7.950;2024-01-15T20:15:23;12.50;;;8.80;;
1136;SDS011;557;48.466;7.950;2024-01-15T20:17:51;16.57;;;9.67;;
1136;SDS011;557;48.466;7.950;2024-01-15T20:20:19;15.40;;;9.27;;
1136;SDS011;557;48.466;7.950;2024-01-15T20:22:47;14.50;;;9.23;;
1136;SDS011;557;48.466;7.950;2024-01-15T20:25:14;14.03;;;9.23;;
1136;SDS011;557;48.466;7.950;2024-01-15T20:27:42;9.93;;;8.00;;
1136;SDS011;557;48.466;7.950;2024-01-15T20:30:09;15.47;;;9.57;;
1136;SDS011;557;48.466;7.950;2024-01-15T20:32:37;12.77;;;8.60;;
1136;SDS011;557;48.466;7.950;2024-01-15T20:35:05;11.50;;;7.97;;
1136;SDS011;557;48.466;7.950;2024-01-15T20:37:32;12.53;;;8.60;;
1136;SDS011;557;48.466;7.950;2024-01-15T20:40:01;16.37;;;7.93;;
1136;SDS011;557;48.466;7.950;2024-01-15T20:42:28;10.53;;;8.40;;
1136;SDS011;557;48.466;7.950;2024-01-15T20:44:55;12.27;;;8.20;;
1136;SDS011;557;48.466;7.950;2024-01-15T20:47:22;24.00;;;13.70;;
1136;SDS011;557;48.466;7.950;2024-01-15T20:49:49;33.40;;;17.97;;
1136;SDS011;557;48.466;7.950;2024-01-15T20:52:15;15.13;;;10.40;;
1136;SDS011;557;48.466;7.950;2024-01-15T20:54:42;13.03;;;8.87;;
1136;SDS011;557;48.466;7.950;2024-01-15T20:57:11;10.23;;;7.50;;
1136;SDS011;557;48.466;7.950;2024-01-15T20:59:38;9.20;;;7.60;;
1136;SDS011;557;48.466;7.950;2024-01-15T21:02:04;16.60;;;8.20;;
1136;SDS011;557;48.466;7.950;2024-01-15T21:04:31;12.10;;;7.20;;
1136;SDS011;557;48.466;7.950;2024-01-15T21:06:58;9.90;;;7.73;;
1136;SDS011;557;48.466;7.950;2024-01-15T21:09:25;13.83;;;8.10;;
1136;SDS011;557;48.466;7.950;2024-01-15T21:11:52;10.43;;;8.27;;
1136;SDS011;557;48.466;7.950;2024-01-15T21:14:21;13.20;;;8.70;;
1136;SDS011;557;48.466;7.950;2024-01-15T21:16:50;12.50;;;8.60;;
1136;SDS011;557;48.466;7.950;2024-01-15T21:19:18;14.83;;;8.17;;
1136;SDS011;557;48.466;7.950;2024-01-15T21:21:46;13.07;;;8.20;;
1136;SDS011;557;48.466;7.950;2024-01-15T21:24:17;11.13;;;7.97;;
1136;SDS011;557;48.466;7.950;2024-01-15T21:26:47;18.40;;;9.70;;
1136;SDS011;557;48.466;7.950;2024-01-15T21:29:14;10.10;;;7.80;;
1136;SDS011;557;48.466;7.950;2024-01-15T21:31:42;12.97;;;8.60;;
1136;SDS011;557;48.466;7.950;2024-01-15T21:34:10;12.00;;;7.40;;
1136;SDS011;557;48.466;7.950;2024-01-15T21:36:38;14.93;;;8.20;;
1136;SDS011;557;48.466;7.950;2024-01-15T21:39:05;11.47;;;6.70;;
1136;SDS011;557;48.466;7.950;2024-01-15T21:41:32;10.63;;;6.50;;
1136;SDS011;557;48.466;7.950;2024-01-15T21:43:59;8.20;;;6.87;;
1136;SDS011;557;48.466;7.950;2024-01-15T21:46:31;11.77;;;7.40;;
1136;SDS011;557;48.466;7.950;2024-01-15T21:48:59;10.20;;;6.60;;
1136;SDS011;557;48.466;7.950;2024-01-15T21:51:26;11.50;;;7.30;;
1136;SDS011;557;48.466;7.950;2024-01-15T21:53:55;11.77;;;7.03;;
1136;SDS011;557;48.466;7.950;2024-01-15T21:56:23;11.30;;;6.93;;
1136;SDS011;557;48.466;7.950;2024-01-15T21:58:50;13.63;;;8.93;;
1136;SDS011;557;48.466;7.950;2024-01-15T22:01:17;13.30;;;8.03;;
1136;SDS011;557;48.466;7.950;2024-01-15T22:03:47;10.37;;;7.70;;
1136;SDS011;557;48.466;7.950;2024-01-15T22:06:16;12.57;;;7.70;;
1136;SDS011;557;48.466;7.950;2024-01-15T22:08:43;11.40;;;7.47;;
1136;SDS011;557;48.466;7.950;2024-01-15T22:11:10;11.33;;;7.57;;
1136;SDS011;557;48.466;7.950;2024-01-15T22:13:37;11.40;;;8.87;;
1136;SDS011;557;48.466;7.950;2024-01-15T22:16:04;14.10;;;9.47;;
1136;SDS011;557;48.466;7.950;2024-01-15T22:18:31;15.23;;;10.27;;
1136;SDS011;557;48.466;7.950;2024-01-15T22:21:00;15.33;;;9.13;;
1136;SDS011;557;48.466;7.950;2024-01-15T22:23:28;11.27;;;8.07;;
1136;SDS011;557;48.466;7.950;2024-01-15T22:25:55;10.70;;;6.83;;
1136;SDS011;557;48.466;7.950;2024-01-15T22:28:22;9.93;;;6.30;;
1136;SDS011;557;48.466;7.950;2024-01-15T22:30:49;10.10;;;7.17;;
1136;SDS011;557;48.466;7.950;2024-01-15T22:33:16;10.30;;;7.17;;
1136;SDS011;557;48.466;7.950;2024-01-15T22:35:43;9.30;;;7.20;;
1136;SDS011;557;48.466;7.950;2024-01-15T22:38:10;10.27;;;7.13;;
1136;SDS011;557;48.466;7.950;2024-01-15T22:40:38;10.60;;;7.20;;
1136;SDS011;557;48.466;7.950;2024-01-15T22:43:05;10.80;;;6.80;;
1136;SDS011;557;48.466;7.950;2024-01-15T22:45:35;9.30;;;7.00;;
1136;SDS011;557;48.466;7.950;2024-01-15T22:48:02;8.53;;;6.10;;
1136;SDS011;557;48.466;7.950;2024-01-15T22:50:29;8.13;;;7.30;;
1136;SDS011;557;48.466;7.950;2024-01-15T22:52:56;8.43;;;6.40;;
1136;SDS011;557;48.466;7.950;2024-01-15T22:55:23;9.60;;;7.13;;
1136;SDS011;557;48.466;7.950;2024-01-15T22:57:51;9.40;;;6.90;;
1136;SDS011;557;48.466;7.950;2024-01-15T23:00:18;13.37;;;8.50;;
1136;SDS011;557;48.466;7.950;2024-01-15T23:02:47;10.10;;;7.10;;
1136;SDS011;557;48.466;7.950;2024-01-15T23:05:14;10.17;;;7.07;;
1136;SDS011;557;48.466;7.950;2024-01-15T23:07:41;10.83;;;7.10;;
1136;SDS011;557;48.466;7.950;2024-01-15T23:10:08;9.80;;;6.40;;
1136;SDS011;557;48.466;7.950;2024-01-15T23:12:35;12.20;;;7.90;;
1136;SDS011;557;48.466;7.950;2024-01-15T23:15:04;13.43;;;6.63;;
1136;SDS011;557;48.466;7.950;2024-01-15T23:17:32;9.53;;;6.97;;
1136;SDS011;557;48.466;7.950;2024-01-15T23:19:59;10.57;;;7.73;;
1136;SDS011;557;48.466;7.950;2024-01-15T23:22:26;9.63;;;7.77;;
1136;SDS011;557;48.466;7.950;2024-01-15T23:24:53;10.10;;;6.50;;
1136;SDS011;557;48.466;7.950;2024-01-15T23:27:20;8.13;;;6.50;;
1136;SDS011;557;48.466;7.950;2024-01-15T23:29:46;10.87;;;7.33;;
1136;SDS011;557;48.466;7.950;2024-01-15T23:32:15;11.67;;;7.30;;
1136;SDS011;557;48.466;7.950;2024-01-15T23:34:42;12.67;;;7.23;;
1136;SDS011;557;48.466;7.950;2024-01-15T23:37:08;10.87;;;7.80;;
1136;SDS011;557;48.466;7.950;2024-01-15T23:39:35;13.93;;;8.60;;
1136;SDS011;557;48.466;7.950;2024-01-15T23:42:02;18.90;;;11.37;;
1136;SDS011;557;48.466;7.950;2024-01-15T23:44:29;14.63;;;10.07;;
1136;SDS011;557;48.466;7.950;2024-01-15T23:46:56;24.67;;;14.30;;
1136;SDS011;557;48.466;7.950;2024-01-15T23:49:24;18.53;;;10.87;;
1136;SDS011;557;48.466;7.950;2024-01-15T23:51:51;11.40;;;7.43;;
1136;SDS011;557;48.466;7.950;2024-01-15T23:54:18;8.67;;;6.53;;
1136;SDS011;557;48.466;7.950;2024-01-15T23:56:46;7.70;;;6.47;;
1136;SDS011;557;48.466;7.950;2024-01-15T23:59:13;9.47;;;7.20;;
